Oceana Nas, Apollo Soucek Field, Station Virginia Beach US
ICAO: KNTU
IATA: NTU
Category: Medium
Scheduled Services: No

Elevation: 23 ft
TransAlt. 18000 ft.

Airport Communications:
Oceana Approach Control:123.9
ATIS:31.76
CLNC DEL:25.44
Oceana Departure Control:119.6
GND:33.64
ATCOM:672.3
BASE OPS:28.49
PMSV METRO:38.74
TWR:127.075

KNTU Zoom In..

If you have problems with the map follow the link
https://www.worldairports.se/pages/airport.php?
ICAO=KNTU

Runways:

(A) RW 05L length 8001 ft width 150 ft
---- / hdg 52

(B) RW 05R length 12000 ft width 200 ft
---- / hdg 52

(C) RW 14L length 8001 ft width 150 ft
---- / hdg 144

(D) RW 14R length 8000 ft width 200 ft
---- / hdg 144

(E) RW 23L length 12000 ft width 200 ft
---- / hdg 232

(F) RW 23R length 8001 ft width 150 ft
---- / hdg 232

(G) RW 32L length 8000 ft width 200 ft
---- / hdg 324

(H) RW 32R length 8001 ft width 150 ft
---- / hdg 324

Location; KNTU
Day. 10 / Time. 00.56 Zulu
* Altimeter: 29.95
* Temperature: 17° c. 62.6°f.
* Wind from: 200° Speed 10 kn with Gusts up to 18 kn.
Dewpoint: 15° c.
Visibility: 10 Statute Miles.
Clouds: Broken 15000 ft.
Clouds: Overcast 18000 ft.

KNTU 100056Z 20010G18KT 10SM BKN150 OVC180 17/15 A2995 RMK AO2 SLP146 T01720150


Wind From 200°
Speed 10 kn.

 
 
jpsmedia worldairports.se 2019   terms of use